sensor_id;sensor_type;location;lat;lon;timestamp;P1;durP1;ratioP1;P2;durP2;ratioP2
22480;SDS011;11407;56.964;-2.212;2023-04-25T00:02:19;3.93;;;1.87;;
22480;SDS011;11407;56.964;-2.212;2023-04-25T00:04:44;1.80;;;1.20;;
22480;SDS011;11407;56.964;-2.212;2023-04-25T00:07:09;4.63;;;1.77;;
22480;SDS011;11407;56.964;-2.212;2023-04-25T00:09:35;3.60;;;2.00;;
22480;SDS011;11407;56.964;-2.212;2023-04-25T00:12:00;4.33;;;1.53;;
22480;SDS011;11407;56.964;-2.212;2023-04-25T00:14:26;5.87;;;1.80;;
22480;SDS011;11407;56.964;-2.212;2023-04-25T00:16:52;3.67;;;1.73;;
22480;SDS011;11407;56.964;-2.212;2023-04-25T00:19:18;3.67;;;1.50;;
22480;SDS011;11407;56.964;-2.212;2023-04-25T00:21:44;3.80;;;1.57;;
22480;SDS011;11407;56.964;-2.212;2023-04-25T00:24:11;3.97;;;1.70;;
22480;SDS011;11407;56.964;-2.212;2023-04-25T00:26:36;5.60;;;1.60;;
22480;SDS011;11407;56.964;-2.212;2023-04-25T00:29:01;4.50;;;1.80;;
22480;SDS011;11407;56.964;-2.212;2023-04-25T00:31:27;3.07;;;1.50;;
22480;SDS011;11407;56.964;-2.212;2023-04-25T00:33:54;1.57;;;1.30;;
22480;SDS011;11407;56.964;-2.212;2023-04-25T00:36:19;3.13;;;1.77;;
22480;SDS011;11407;56.964;-2.212;2023-04-25T00:38:44;7.40;;;1.83;;
22480;SDS011;11407;56.964;-2.212;2023-04-25T00:41:10;6.57;;;2.10;;
22480;SDS011;11407;56.964;-2.212;2023-04-25T00:43:36;5.80;;;1.70;;
22480;SDS011;11407;56.964;-2.212;2023-04-25T00:46:01;4.87;;;1.60;;
22480;SDS011;11407;56.964;-2.212;2023-04-25T00:48:27;3.20;;;1.63;;
22480;SDS011;11407;56.964;-2.212;2023-04-25T00:50:53;4.23;;;2.00;;
22480;SDS011;11407;56.964;-2.212;2023-04-25T00:53:21;2.77;;;1.60;;
22480;SDS011;11407;56.964;-2.212;2023-04-25T00:55:47;3.70;;;1.50;;
22480;SDS011;11407;56.964;-2.212;2023-04-25T00:58:13;5.37;;;1.50;;
22480;SDS011;11407;56.964;-2.212;2023-04-25T01:00:38;4.17;;;1.73;;
22480;SDS011;11407;56.964;-2.212;2023-04-25T01:03:05;3.20;;;1.50;;
22480;SDS011;11407;56.964;-2.212;2023-04-25T01:05:30;3.57;;;1.67;;
22480;SDS011;11407;56.964;-2.212;2023-04-25T01:07:55;3.10;;;1.50;;
22480;SDS011;11407;56.964;-2.212;2023-04-25T01:10:20;3.47;;;1.43;;
22480;SDS011;11407;56.964;-2.212;2023-04-25T01:12:46;3.60;;;1.80;;
22480;SDS011;11407;56.964;-2.212;2023-04-25T01:15:11;3.00;;;1.50;;
22480;SDS011;11407;56.964;-2.212;2023-04-25T01:17:37;4.90;;;1.60;;
22480;SDS011;11407;56.964;-2.212;2023-04-25T01:20:03;3.00;;;1.83;;
22480;SDS011;11407;56.964;-2.212;2023-04-25T01:22:29;2.27;;;1.53;;
22480;SDS011;11407;56.964;-2.212;2023-04-25T01:24:54;5.07;;;1.50;;
22480;SDS011;11407;56.964;-2.212;2023-04-25T01:27:19;2.70;;;1.17;;
22480;SDS011;11407;56.964;-2.212;2023-04-25T01:29:45;3.90;;;1.20;;
22480;SDS011;11407;56.964;-2.212;2023-04-25T01:32:11;2.83;;;1.40;;
22480;SDS011;11407;56.964;-2.212;2023-04-25T01:34:36;3.87;;;1.53;;
22480;SDS011;11407;56.964;-2.212;2023-04-25T01:37:01;1.97;;;1.10;;
22480;SDS011;11407;56.964;-2.212;2023-04-25T01:39:27;3.73;;;1.53;;
22480;SDS011;11407;56.964;-2.212;2023-04-25T01:41:52;1.53;;;1.20;;
22480;SDS011;11407;56.964;-2.212;2023-04-25T01:44:17;3.30;;;1.23;;
22480;SDS011;11407;56.964;-2.212;2023-04-25T01:46:43;2.30;;;1.33;;
22480;SDS011;11407;56.964;-2.212;2023-04-25T01:49:08;4.40;;;1.20;;
22480;SDS011;11407;56.964;-2.212;2023-04-25T01:51:33;2.00;;;1.40;;
22480;SDS011;11407;56.964;-2.212;2023-04-25T01:53:59;1.87;;;1.30;;
22480;SDS011;11407;56.964;-2.212;2023-04-25T01:56:25;1.40;;;1.20;;
22480;SDS011;11407;56.964;-2.212;2023-04-25T01:58:50;1.73;;;1.30;;
22480;SDS011;11407;56.964;-2.212;2023-04-25T02:01:16;2.50;;;1.47;;
22480;SDS011;11407;56.964;-2.212;2023-04-25T02:03:41;2.93;;;1.23;;
22480;SDS011;11407;56.964;-2.212;2023-04-25T02:06:06;4.50;;;1.40;;
22480;SDS011;11407;56.964;-2.212;2023-04-25T02:08:31;2.23;;;1.03;;
22480;SDS011;11407;56.964;-2.212;2023-04-25T02:10:57;3.03;;;1.40;;
22480;SDS011;11407;56.964;-2.212;2023-04-25T02:13:22;3.57;;;1.43;;
22480;SDS011;11407;56.964;-2.212;2023-04-25T02:15:47;2.90;;;1.40;;
22480;SDS011;11407;56.964;-2.212;2023-04-25T02:18:13;2.43;;;1.10;;
22480;SDS011;11407;56.964;-2.212;2023-04-25T02:20:41;3.63;;;1.30;;
22480;SDS011;11407;56.964;-2.212;2023-04-25T02:23:06;3.10;;;1.37;;
22480;SDS011;11407;56.964;-2.212;2023-04-25T02:25:31;2.43;;;1.30;;
22480;SDS011;11407;56.964;-2.212;2023-04-25T02:27:56;3.60;;;1.30;;
22480;SDS011;11407;56.964;-2.212;2023-04-25T02:30:22;2.77;;;1.20;;
22480;SDS011;11407;56.964;-2.212;2023-04-25T02:32:47;3.47;;;1.53;;
22480;SDS011;11407;56.964;-2.212;2023-04-25T02:35:12;1.47;;;1.20;;
22480;SDS011;11407;56.964;-2.212;2023-04-25T02:37:38;3.10;;;1.17;;
22480;SDS011;11407;56.964;-2.212;2023-04-25T02:40:03;1.87;;;1.20;;
22480;SDS011;11407;56.964;-2.212;2023-04-25T02:42:29;4.40;;;1.40;;
22480;SDS011;11407;56.964;-2.212;2023-04-25T02:44:55;4.27;;;1.20;;
22480;SDS011;11407;56.964;-2.212;2023-04-25T02:47:20;3.40;;;1.20;;
22480;SDS011;11407;56.964;-2.212;2023-04-25T02:49:45;2.80;;;1.43;;
22480;SDS011;11407;56.964;-2.212;2023-04-25T02:52:11;3.03;;;1.40;;
22480;SDS011;11407;56.964;-2.212;2023-04-25T02:54:36;2.90;;;1.37;;
22480;SDS011;11407;56.964;-2.212;2023-04-25T02:57:01;2.17;;;1.30;;
22480;SDS011;11407;56.964;-2.212;2023-04-25T02:59:27;4.77;;;1.27;;
22480;SDS011;11407;56.964;-2.212;2023-04-25T03:01:52;3.40;;;1.60;;
22480;SDS011;11407;56.964;-2.212;2023-04-25T03:04:18;2.17;;;1.20;;
22480;SDS011;11407;56.964;-2.212;2023-04-25T03:06:44;2.17;;;1.20;;
22480;SDS011;11407;56.964;-2.212;2023-04-25T03:09:09;1.53;;;1.23;;
22480;SDS011;11407;56.964;-2.212;2023-04-25T03:11:34;3.07;;;1.27;;
22480;SDS011;11407;56.964;-2.212;2023-04-25T03:14:00;1.83;;;1.10;;
22480;SDS011;11407;56.964;-2.212;2023-04-25T03:16:25;3.10;;;1.47;;
22480;SDS011;11407;56.964;-2.212;2023-04-25T03:18:50;2.10;;;1.00;;
22480;SDS011;11407;56.964;-2.212;2023-04-25T03:21:16;2.30;;;1.20;;
22480;SDS011;11407;56.964;-2.212;2023-04-25T03:23:41;5.50;;;1.50;;
22480;SDS011;11407;56.964;-2.212;2023-04-25T03:26:06;4.33;;;1.50;;
22480;SDS011;11407;56.964;-2.212;2023-04-25T03:28:32;2.53;;;1.27;;
22480;SDS011;11407;56.964;-2.212;2023-04-25T03:30:57;2.30;;;1.50;;
22480;SDS011;11407;56.964;-2.212;2023-04-25T03:33:22;3.07;;;1.50;;
22480;SDS011;11407;56.964;-2.212;2023-04-25T03:35:47;3.27;;;1.30;;
22480;SDS011;11407;56.964;-2.212;2023-04-25T03:38:13;2.60;;;1.57;;
22480;SDS011;11407;56.964;-2.212;2023-04-25T03:40:38;2.80;;;1.60;;
22480;SDS011;11407;56.964;-2.212;2023-04-25T03:43:03;3.13;;;1.40;;
22480;SDS011;11407;56.964;-2.212;2023-04-25T03:45:28;2.17;;;1.50;;
22480;SDS011;11407;56.964;-2.212;2023-04-25T03:47:54;5.40;;;1.50;;
22480;SDS011;11407;56.964;-2.212;2023-04-25T03:50:19;1.83;;;1.17;;
22480;SDS011;11407;56.964;-2.212;2023-04-25T03:52:44;3.53;;;1.30;;
22480;SDS011;11407;56.964;-2.212;2023-04-25T03:55:09;3.73;;;1.20;;
22480;SDS011;11407;56.964;-2.212;2023-04-25T03:57:35;2.90;;;1.37;;
22480;SDS011;11407;56.964;-2.212;2023-04-25T04:00:00;1.40;;;1.30;;
22480;SDS011;11407;56.964;-2.212;2023-04-25T04:02:26;1.83;;;1.20;;
22480;SDS011;11407;56.964;-2.212;2023-04-25T04:04:51;2.70;;;1.40;;
22480;SDS011;11407;56.964;-2.212;2023-04-25T04:07:16;4.90;;;1.43;;
22480;SDS011;11407;56.964;-2.212;2023-04-25T04:09:41;3.60;;;1.57;;
22480;SDS011;11407;56.964;-2.212;2023-04-25T04:12:07;1.70;;;1.10;;
22480;SDS011;11407;56.964;-2.212;2023-04-25T04:14:32;2.47;;;1.20;;
22480;SDS011;11407;56.964;-2.212;2023-04-25T04:16:57;3.40;;;1.60;;
22480;SDS011;11407;56.964;-2.212;2023-04-25T04:19:22;4.73;;;1.43;;
22480;SDS011;11407;56.964;-2.212;2023-04-25T04:21:48;3.83;;;1.50;;
22480;SDS011;11407;56.964;-2.212;2023-04-25T04:24:13;3.20;;;1.23;;
22480;SDS011;11407;56.964;-2.212;2023-04-25T04:26:39;2.40;;;1.23;;
22480;SDS011;11407;56.964;-2.212;2023-04-25T04:29:05;4.37;;;1.43;;
22480;SDS011;11407;56.964;-2.212;2023-04-25T04:31:30;3.77;;;1.40;;
22480;SDS011;11407;56.964;-2.212;2023-04-25T04:33:55;3.27;;;1.30;;
22480;SDS011;11407;56.964;-2.212;2023-04-25T04:36:20;4.70;;;1.60;;
22480;SDS011;11407;56.964;-2.212;2023-04-25T04:38:47;3.77;;;1.17;;
22480;SDS011;11407;56.964;-2.212;2023-04-25T04:41:12;4.27;;;1.50;;
22480;SDS011;11407;56.964;-2.212;2023-04-25T04:43:37;3.73;;;1.30;;
22480;SDS011;11407;56.964;-2.212;2023-04-25T04:46:04;3.43;;;1.40;;
22480;SDS011;11407;56.964;-2.212;2023-04-25T04:48:31;2.43;;;1.00;;
22480;SDS011;11407;56.964;-2.212;2023-04-25T04:50:59;4.27;;;1.40;;
22480;SDS011;11407;56.964;-2.212;2023-04-25T04:53:24;4.67;;;2.53;;
22480;SDS011;11407;56.964;-2.212;2023-04-25T04:55:49;5.17;;;2.17;;
22480;SDS011;11407;56.964;-2.212;2023-04-25T04:58:14;4.17;;;1.67;;
22480;SDS011;11407;56.964;-2.212;2023-04-25T05:00:40;4.90;;;1.40;;
22480;SDS011;11407;56.964;-2.212;2023-04-25T05:03:05;1.50;;;1.23;;
22480;SDS011;11407;56.964;-2.212;2023-04-25T05:05:30;2.37;;;1.40;;
22480;SDS011;11407;56.964;-2.212;2023-04-25T05:07:55;2.90;;;1.50;;
22480;SDS011;11407;56.964;-2.212;2023-04-25T05:10:21;2.20;;;1.40;;
22480;SDS011;11407;56.964;-2.212;2023-04-25T05:12:46;3.13;;;2.00;;
22480;SDS011;11407;56.964;-2.212;2023-04-25T05:15:11;4.90;;;2.30;;
22480;SDS011;11407;56.964;-2.212;2023-04-25T05:17:37;4.13;;;2.07;;
22480;SDS011;11407;56.964;-2.212;2023-04-25T05:20:02;2.07;;;1.43;;
22480;SDS011;11407;56.964;-2.212;2023-04-25T05:22:29;3.37;;;1.27;;
22480;SDS011;11407;56.964;-2.212;2023-04-25T05:24:54;1.97;;;1.20;;
22480;SDS011;11407;56.964;-2.212;2023-04-25T05:27:19;2.77;;;1.53;;
22480;SDS011;11407;56.964;-2.212;2023-04-25T05:29:45;2.93;;;1.70;;
22480;SDS011;11407;56.964;-2.212;2023-04-25T05:32:10;6.67;;;1.50;;
22480;SDS011;11407;56.964;-2.212;2023-04-25T05:34:36;3.33;;;1.37;;
22480;SDS011;11407;56.964;-2.212;2023-04-25T05:37:01;3.20;;;1.33;;
22480;SDS011;11407;56.964;-2.212;2023-04-25T05:39:27;2.03;;;1.30;;
22480;SDS011;11407;56.964;-2.212;2023-04-25T05:41:52;4.17;;;1.33;;
22480;SDS011;11407;56.964;-2.212;2023-04-25T05:44:17;4.47;;;1.70;;
22480;SDS011;11407;56.964;-2.212;2023-04-25T05:46:43;2.83;;;1.10;;
22480;SDS011;11407;56.964;-2.212;2023-04-25T05:49:08;2.30;;;1.10;;
22480;SDS011;11407;56.964;-2.212;2023-04-25T05:51:33;3.23;;;1.30;;
22480;SDS011;11407;56.964;-2.212;2023-04-25T05:53:58;3.00;;;1.30;;
22480;SDS011;11407;56.964;-2.212;2023-04-25T05:56:24;3.43;;;1.10;;
22480;SDS011;11407;56.964;-2.212;2023-04-25T05:58:49;1.63;;;1.20;;
22480;SDS011;11407;56.964;-2.212;2023-04-25T06:01:14;2.43;;;0.90;;
22480;SDS011;11407;56.964;-2.212;2023-04-25T06:03:40;3.63;;;1.20;;
22480;SDS011;11407;56.964;-2.212;2023-04-25T06:06:08;3.43;;;1.20;;
22480;SDS011;11407;56.964;-2.212;2023-04-25T06:08:33;1.37;;;0.80;;
22480;SDS011;11407;56.964;-2.212;2023-04-25T06:10:58;2.33;;;1.23;;
22480;SDS011;11407;56.964;-2.212;2023-04-25T06:13:24;2.37;;;1.07;;
22480;SDS011;11407;56.964;-2.212;2023-04-25T06:15:54;4.37;;;1.10;;
22480;SDS011;11407;56.964;-2.212;2023-04-25T06:18:21;1.80;;;1.00;;
22480;SDS011;11407;56.964;-2.212;2023-04-25T06:20:46;1.20;;;1.10;;
22480;SDS011;11407;56.964;-2.212;2023-04-25T06:23:11;3.10;;;0.77;;
22480;SDS011;11407;56.964;-2.212;2023-04-25T06:25:37;2.97;;;1.17;;
22480;SDS011;11407;56.964;-2.212;2023-04-25T06:28:02;1.83;;;1.00;;
22480;SDS011;11407;56.964;-2.212;2023-04-25T06:30:27;2.00;;;1.00;;
22480;SDS011;11407;56.964;-2.212;2023-04-25T06:32:53;1.17;;;1.00;;
22480;SDS011;11407;56.964;-2.212;2023-04-25T06:35:18;1.00;;;0.80;;
22480;SDS011;11407;56.964;-2.212;2023-04-25T06:37:43;1.77;;;0.90;;
22480;SDS011;11407;56.964;-2.212;2023-04-25T06:40:09;1.37;;;0.90;;
22480;SDS011;11407;56.964;-2.212;2023-04-25T06:42:35;1.97;;;1.10;;
22480;SDS011;11407;56.964;-2.212;2023-04-25T06:45:00;2.47;;;1.07;;
22480;SDS011;11407;56.964;-2.212;2023-04-25T06:47:25;4.17;;;0.83;;
22480;SDS011;11407;56.964;-2.212;2023-04-25T06:49:51;2.23;;;0.83;;
22480;SDS011;11407;56.964;-2.212;2023-04-25T06:52:16;2.30;;;0.90;;
22480;SDS011;11407;56.964;-2.212;2023-04-25T06:54:43;1.60;;;0.80;;
22480;SDS011;11407;56.964;-2.212;2023-04-25T06:57:08;4.67;;;1.00;;
22480;SDS011;11407;56.964;-2.212;2023-04-25T06:59:33;2.10;;;1.13;;
22480;SDS011;11407;56.964;-2.212;2023-04-25T07:01:58;2.70;;;0.90;;
22480;SDS011;11407;56.964;-2.212;2023-04-25T07:04:23;1.73;;;1.00;;
22480;SDS011;11407;56.964;-2.212;2023-04-25T07:06:49;2.70;;;1.20;;
22480;SDS011;11407;56.964;-2.212;2023-04-25T07:09:14;3.00;;;1.00;;
22480;SDS011;11407;56.964;-2.212;2023-04-25T07:11:39;3.27;;;1.00;;
22480;SDS011;11407;56.964;-2.212;2023-04-25T07:14:05;2.83;;;1.40;;
22480;SDS011;11407;56.964;-2.212;2023-04-25T07:16:30;1.93;;;1.20;;
22480;SDS011;11407;56.964;-2.212;2023-04-25T07:18:55;3.17;;;0.80;;
22480;SDS011;11407;56.964;-2.212;2023-04-25T07:21:21;3.43;;;1.10;;
22480;SDS011;11407;56.964;-2.212;2023-04-25T07:23:46;1.90;;;1.17;;
22480;SDS011;11407;56.964;-2.212;2023-04-25T07:26:11;1.40;;;1.10;;
22480;SDS011;11407;56.964;-2.212;2023-04-25T07:28:37;1.90;;;1.00;;
22480;SDS011;11407;56.964;-2.212;2023-04-25T07:31:02;2.97;;;1.07;;
22480;SDS011;11407;56.964;-2.212;2023-04-25T07:33:28;2.10;;;1.00;;
22480;SDS011;11407;56.964;-2.212;2023-04-25T07:35:53;2.97;;;0.83;;
22480;SDS011;11407;56.964;-2.212;2023-04-25T07:38:18;1.73;;;1.03;;
22480;SDS011;11407;56.964;-2.212;2023-04-25T07:40:43;4.27;;;1.17;;
22480;SDS011;11407;56.964;-2.212;2023-04-25T07:43:09;3.57;;;1.00;;
22480;SDS011;11407;56.964;-2.212;2023-04-25T07:45:37;1.23;;;0.90;;
22480;SDS011;11407;56.964;-2.212;2023-04-25T07:48:02;4.27;;;1.00;;
22480;SDS011;11407;56.964;-2.212;2023-04-25T07:50:28;2.23;;;0.83;;
22480;SDS011;11407;56.964;-2.212;2023-04-25T07:52:53;1.77;;;0.93;;
22480;SDS011;11407;56.964;-2.212;2023-04-25T07:55:18;1.63;;;0.90;;
22480;SDS011;11407;56.964;-2.212;2023-04-25T07:57:44;1.97;;;0.83;;
22480;SDS011;11407;56.964;-2.212;2023-04-25T08:00:09;2.70;;;0.90;;
22480;SDS011;11407;56.964;-2.212;2023-04-25T08:02:35;3.80;;;1.10;;
22480;SDS011;11407;56.964;-2.212;2023-04-25T08:05:00;1.40;;;0.90;;
22480;SDS011;11407;56.964;-2.212;2023-04-25T08:07:25;3.47;;;1.27;;
22480;SDS011;11407;56.964;-2.212;2023-04-25T08:09:51;1.23;;;1.00;;
22480;SDS011;11407;56.964;-2.212;2023-04-25T08:12:17;1.00;;;0.90;;
22480;SDS011;11407;56.964;-2.212;2023-04-25T08:14:42;1.67;;;1.10;;
22480;SDS011;11407;56.964;-2.212;2023-04-25T08:17:07;1.67;;;0.90;;
22480;SDS011;11407;56.964;-2.212;2023-04-25T08:19:33;3.23;;;1.00;;
22480;SDS011;11407;56.964;-2.212;2023-04-25T08:21:58;2.50;;;1.20;;
22480;SDS011;11407;56.964;-2.212;2023-04-25T08:24:23;1.90;;;1.20;;
22480;SDS011;11407;56.964;-2.212;2023-04-25T08:26:49;3.07;;;1.33;;
22480;SDS011;11407;56.964;-2.212;2023-04-25T08:29:14;2.80;;;1.30;;
22480;SDS011;11407;56.964;-2.212;2023-04-25T08:31:39;1.50;;;0.97;;
22480;SDS011;11407;56.964;-2.212;2023-04-25T08:34:05;3.87;;;1.00;;
22480;SDS011;11407;56.964;-2.212;2023-04-25T08:36:30;1.17;;;1.00;;
22480;SDS011;11407;56.964;-2.212;2023-04-25T08:38:56;1.00;;;0.90;;
22480;SDS011;11407;56.964;-2.212;2023-04-25T08:41:21;3.43;;;0.93;;
22480;SDS011;11407;56.964;-2.212;2023-04-25T08:43:47;1.13;;;0.83;;
22480;SDS011;11407;56.964;-2.212;2023-04-25T08:46:13;2.47;;;1.00;;
22480;SDS011;11407;56.964;-2.212;2023-04-25T08:48:40;2.53;;;1.00;;
22480;SDS011;11407;56.964;-2.212;2023-04-25T08:51:07;0.97;;;0.87;;
22480;SDS011;11407;56.964;-2.212;2023-04-25T08:53:33;0.80;;;0.80;;
22480;SDS011;11407;56.964;-2.212;2023-04-25T08:55:59;1.43;;;0.80;;
22480;SDS011;11407;56.964;-2.212;2023-04-25T08:58:27;0.63;;;0.63;;
22480;SDS011;11407;56.964;-2.212;2023-04-25T09:00:52;0.77;;;0.70;;
22480;SDS011;11407;56.964;-2.212;2023-04-25T09:03:18;1.73;;;0.80;;
22480;SDS011;11407;56.964;-2.212;2023-04-25T09:05:43;1.00;;;0.80;;
22480;SDS011;11407;56.964;-2.212;2023-04-25T09:08:09;0.83;;;0.70;;
22480;SDS011;11407;56.964;-2.212;2023-04-25T09:10:34;7.23;;;1.07;;
22480;SDS011;11407;56.964;-2.212;2023-04-25T09:15:29;1.53;;;0.80;;
22480;SDS011;11407;56.964;-2.212;2023-04-25T09:17:58;2.80;;;1.30;;
22480;SDS011;11407;56.964;-2.212;2023-04-25T09:20:23;2.17;;;1.13;;
22480;SDS011;11407;56.964;-2.212;2023-04-25T09:22:50;1.10;;;1.00;;
22480;SDS011;11407;56.964;-2.212;2023-04-25T09:25:25;2.30;;;1.20;;
22480;SDS011;11407;56.964;-2.212;2023-04-25T09:27:51;2.30;;;1.10;;
22480;SDS011;11407;56.964;-2.212;2023-04-25T09:30:17;3.17;;;1.00;;
22480;SDS011;11407;56.964;-2.212;2023-04-25T09:32:43;4.20;;;1.40;;
22480;SDS011;11407;56.964;-2.212;2023-04-25T09:35:08;1.97;;;1.00;;
22480;SDS011;11407;56.964;-2.212;2023-04-25T09:37:34;1.43;;;0.93;;
22480;SDS011;11407;56.964;-2.212;2023-04-25T09:40:00;1.20;;;0.87;;
22480;SDS011;11407;56.964;-2.212;2023-04-25T09:42:30;5.43;;;1.00;;
22480;SDS011;11407;56.964;-2.212;2023-04-25T09:44:57;3.43;;;1.10;;
22480;SDS011;11407;56.964;-2.212;2023-04-25T09:47:23;3.87;;;1.10;;
22480;SDS011;11407;56.964;-2.212;2023-04-25T09:49:49;1.67;;;1.40;;
22480;SDS011;11407;56.964;-2.212;2023-04-25T09:52:16;2.87;;;1.30;;
22480;SDS011;11407;56.964;-2.212;2023-04-25T09:54:42;2.23;;;1.10;;
22480;SDS011;11407;56.964;-2.212;2023-04-25T09:57:17;3.83;;;1.20;;
22480;SDS011;11407;56.964;-2.212;2023-04-25T09:59:43;1.67;;;1.10;;
22480;SDS011;11407;56.964;-2.212;2023-04-25T10:02:08;2.13;;;1.30;;
22480;SDS011;11407;56.964;-2.212;2023-04-25T10:04:34;4.33;;;1.30;;
22480;SDS011;11407;56.964;-2.212;2023-04-25T10:07:00;1.60;;;1.27;;
22480;SDS011;11407;56.964;-2.212;2023-04-25T10:09:26;4.50;;;1.40;;
22480;SDS011;11407;56.964;-2.212;2023-04-25T10:11:54;3.23;;;1.10;;
22480;SDS011;11407;56.964;-2.212;2023-04-25T10:14:19;2.63;;;1.37;;
22480;SDS011;11407;56.964;-2.212;2023-04-25T10:16:45;1.60;;;1.30;;
22480;SDS011;11407;56.964;-2.212;2023-04-25T10:19:10;3.13;;;1.37;;
22480;SDS011;11407;56.964;-2.212;2023-04-25T10:21:37;1.67;;;1.30;;
22480;SDS011;11407;56.964;-2.212;2023-04-25T10:24:07;1.63;;;1.10;;
22480;SDS011;11407;56.964;-2.212;2023-04-25T10:26:33;3.43;;;1.37;;
22480;SDS011;11407;56.964;-2.212;2023-04-25T10:28:59;2.57;;;1.00;;
22480;SDS011;11407;56.964;-2.212;2023-04-25T10:31:24;3.53;;;1.20;;
22480;SDS011;11407;56.964;-2.212;2023-04-25T10:33:50;2.70;;;1.20;;
22480;SDS011;11407;56.964;-2.212;2023-04-25T10:36:19;3.63;;;1.60;;
22480;SDS011;11407;56.964;-2.212;2023-04-25T10:38:47;3.20;;;1.10;;
22480;SDS011;11407;56.964;-2.212;2023-04-25T10:41:12;2.97;;;1.10;;
22480;SDS011;11407;56.964;-2.212;2023-04-25T10:43:41;1.63;;;1.10;;
22480;SDS011;11407;56.964;-2.212;2023-04-25T10:46:15;1.50;;;1.00;;
22480;SDS011;11407;56.964;-2.212;2023-04-25T10:48:44;0.97;;;0.80;;
22480;SDS011;11407;56.964;-2.212;2023-04-25T10:51:10;1.80;;;0.90;;
22480;SDS011;11407;56.964;-2.212;2023-04-25T10:53:36;1.50;;;0.90;;
22480;SDS011;11407;56.964;-2.212;2023-04-25T10:56:18;2.10;;;0.93;;
22480;SDS011;11407;56.964;-2.212;2023-04-25T10:58:44;1.80;;;1.00;;
22480;SDS011;11407;56.964;-2.212;2023-04-25T11:01:10;1.33;;;0.80;;
22480;SDS011;11407;56.964;-2.212;2023-04-25T11:03:40;1.90;;;0.90;;
22480;SDS011;11407;56.964;-2.212;2023-04-25T11:06:05;1.23;;;1.00;;
22480;SDS011;11407;56.964;-2.212;2023-04-25T11:08:36;3.10;;;1.60;;
22480;SDS011;11407;56.964;-2.212;2023-04-25T11:11:05;1.57;;;1.10;;
22480;SDS011;11407;56.964;-2.212;2023-04-25T11:13:30;4.90;;;1.40;;
22480;SDS011;11407;56.964;-2.212;2023-04-25T11:15:55;2.60;;;1.10;;
22480;SDS011;11407;56.964;-2.212;2023-04-25T11:18:20;2.40;;;1.17;;
22480;SDS011;11407;56.964;-2.212;2023-04-25T11:20:47;2.07;;;1.20;;
22480;SDS011;11407;56.964;-2.212;2023-04-25T11:23:13;3.33;;;1.10;;
22480;SDS011;11407;56.964;-2.212;2023-04-25T11:25:38;1.77;;;1.10;;
22480;SDS011;11407;56.964;-2.212;2023-04-25T11:28:03;3.40;;;1.37;;
22480;SDS011;11407;56.964;-2.212;2023-04-25T11:30:29;4.40;;;1.77;;
22480;SDS011;11407;56.964;-2.212;2023-04-25T11:32:55;3.57;;;1.83;;
22480;SDS011;11407;56.964;-2.212;2023-04-25T11:35:21;2.20;;;1.60;;
22480;SDS011;11407;56.964;-2.212;2023-04-25T11:37:48;5.20;;;2.30;;
22480;SDS011;11407;56.964;-2.212;2023-04-25T11:40:14;6.07;;;2.60;;
22480;SDS011;11407;56.964;-2.212;2023-04-25T11:42:41;4.47;;;2.20;;
22480;SDS011;11407;56.964;-2.212;2023-04-25T11:45:08;4.70;;;2.10;;
22480;SDS011;11407;56.964;-2.212;2023-04-25T11:47:34;4.60;;;2.70;;
22480;SDS011;11407;56.964;-2.212;2023-04-25T11:50:00;5.00;;;2.53;;
22480;SDS011;11407;56.964;-2.212;2023-04-25T11:55:20;7.10;;;2.57;;
22480;SDS011;11407;56.964;-2.212;2023-04-25T11:57:46;3.97;;;1.93;;
22480;SDS011;11407;56.964;-2.212;2023-04-25T12:02:44;2.83;;;1.60;;
22480;SDS011;11407;56.964;-2.212;2023-04-25T12:05:10;2.23;;;1.80;;
22480;SDS011;11407;56.964;-2.212;2023-04-25T12:07:36;2.97;;;1.43;;
22480;SDS011;11407;56.964;-2.212;2023-04-25T12:10:09;3.03;;;1.50;;
22480;SDS011;11407;56.964;-2.212;2023-04-25T12:12:35;1.93;;;1.30;;
22480;SDS011;11407;56.964;-2.212;2023-04-25T12:15:08;2.67;;;1.50;;
22480;SDS011;11407;56.964;-2.212;2023-04-25T12:17:34;1.53;;;1.23;;
22480;SDS011;11407;56.964;-2.212;2023-04-25T12:20:00;1.63;;;1.03;;
22480;SDS011;11407;56.964;-2.212;2023-04-25T12:22:30;2.30;;;1.23;;
22480;SDS011;11407;56.964;-2.212;2023-04-25T12:24:56;2.60;;;1.40;;
22480;SDS011;11407;56.964;-2.212;2023-04-25T12:27:23;2.13;;;1.30;;
22480;SDS011;11407;56.964;-2.212;2023-04-25T12:29:51;2.03;;;1.00;;
22480;SDS011;11407;56.964;-2.212;2023-04-25T12:32:17;1.20;;;1.10;;
22480;SDS011;11407;56.964;-2.212;2023-04-25T12:34:43;2.73;;;1.43;;
22480;SDS011;11407;56.964;-2.212;2023-04-25T12:37:08;2.37;;;1.40;;
22480;SDS011;11407;56.964;-2.212;2023-04-25T12:39:33;2.97;;;1.50;;
22480;SDS011;11407;56.964;-2.212;2023-04-25T12:41:58;2.50;;;1.20;;
22480;SDS011;11407;56.964;-2.212;2023-04-25T12:44:24;2.40;;;1.57;;
22480;SDS011;11407;56.964;-2.212;2023-04-25T12:46:50;4.63;;;1.20;;
22480;SDS011;11407;56.964;-2.212;2023-04-25T12:49:15;3.30;;;1.23;;
22480;SDS011;11407;56.964;-2.212;2023-04-25T12:51:40;3.23;;;1.10;;
22480;SDS011;11407;56.964;-2.212;2023-04-25T12:54:07;2.80;;;1.20;;
22480;SDS011;11407;56.964;-2.212;2023-04-25T12:56:33;2.60;;;1.20;;
22480;SDS011;11407;56.964;-2.212;2023-04-25T12:58:58;1.83;;;1.30;;
22480;SDS011;11407;56.964;-2.212;2023-04-25T13:01:24;2.77;;;1.20;;
22480;SDS011;11407;56.964;-2.212;2023-04-25T13:03:50;3.20;;;1.50;;
22480;SDS011;11407;56.964;-2.212;2023-04-25T13:06:16;3.57;;;1.40;;
22480;SDS011;11407;56.964;-2.212;2023-04-25T13:08:41;2.77;;;1.67;;
22480;SDS011;11407;56.964;-2.212;2023-04-25T13:11:07;2.33;;;1.47;;
22480;SDS011;11407;56.964;-2.212;2023-04-25T13:13:32;3.10;;;1.43;;
22480;SDS011;11407;56.964;-2.212;2023-04-25T13:15:59;2.80;;;1.40;;
22480;SDS011;11407;56.964;-2.212;2023-04-25T13:18:25;1.93;;;1.27;;
22480;SDS011;11407;56.964;-2.212;2023-04-25T13:20:54;1.60;;;1.30;;
22480;SDS011;11407;56.964;-2.212;2023-04-25T13:23:19;2.17;;;1.20;;
22480;SDS011;11407;56.964;-2.212;2023-04-25T13:25:45;1.77;;;1.30;;
22480;SDS011;11407;56.964;-2.212;2023-04-25T13:28:10;1.70;;;1.20;;
22480;SDS011;11407;56.964;-2.212;2023-04-25T13:30:36;2.37;;;1.10;;
22480;SDS011;11407;56.964;-2.212;2023-04-25T13:33:02;2.17;;;1.23;;
22480;SDS011;11407;56.964;-2.212;2023-04-25T13:35:28;2.30;;;1.20;;
22480;SDS011;11407;56.964;-2.212;2023-04-25T13:37:53;2.17;;;1.20;;
22480;SDS011;11407;56.964;-2.212;2023-04-25T13:40:19;2.07;;;1.33;;
22480;SDS011;11407;56.964;-2.212;2023-04-25T13:42:44;3.47;;;1.50;;
22480;SDS011;11407;56.964;-2.212;2023-04-25T13:45:10;2.43;;;1.17;;
22480;SDS011;11407;56.964;-2.212;2023-04-25T13:47:36;2.87;;;1.37;;
22480;SDS011;11407;56.964;-2.212;2023-04-25T13:50:01;3.10;;;1.30;;
22480;SDS011;11407;56.964;-2.212;2023-04-25T13:52:28;3.00;;;1.40;;
22480;SDS011;11407;56.964;-2.212;2023-04-25T13:54:53;3.00;;;1.53;;
22480;SDS011;11407;56.964;-2.212;2023-04-25T13:57:19;2.10;;;1.40;;
22480;SDS011;11407;56.964;-2.212;2023-04-25T13:59:44;2.70;;;1.10;;
22480;SDS011;11407;56.964;-2.212;2023-04-25T14:02:11;2.00;;;1.60;;
22480;SDS011;11407;56.964;-2.212;2023-04-25T14:04:36;3.93;;;2.13;;
22480;SDS011;11407;56.964;-2.212;2023-04-25T14:07:02;2.73;;;1.50;;
22480;SDS011;11407;56.964;-2.212;2023-04-25T14:09:28;3.93;;;2.20;;
22480;SDS011;11407;56.964;-2.212;2023-04-25T14:11:53;3.33;;;1.50;;
22480;SDS011;11407;56.964;-2.212;2023-04-25T14:14:19;2.40;;;1.63;;
22480;SDS011;11407;56.964;-2.212;2023-04-25T14:16:45;2.70;;;1.60;;
22480;SDS011;11407;56.964;-2.212;2023-04-25T14:19:11;2.20;;;1.70;;
22480;SDS011;11407;56.964;-2.212;2023-04-25T14:21:36;2.10;;;1.20;;
22480;SDS011;11407;56.964;-2.212;2023-04-25T14:24:01;2.20;;;1.23;;
22480;SDS011;11407;56.964;-2.212;2023-04-25T14:26:26;1.57;;;1.23;;
22480;SDS011;11407;56.964;-2.212;2023-04-25T14:28:52;3.27;;;1.37;;
22480;SDS011;11407;56.964;-2.212;2023-04-25T14:31:17;2.80;;;1.70;;
22480;SDS011;11407;56.964;-2.212;2023-04-25T14:33:42;1.80;;;1.27;;